Sign in to follow this  
brucek

NOAA plug-in- save weather

Recommended Posts

Using the NOAA plug-in (and the excellent Ventura add-on), every time I load XPX at an airport I get current weather, which is normally good. But on occasion there's something unique about the weather (like today at KSFO: KSFO 152340Z 1600/1706 21025G35KT P6SM VCSH SCT018 BKN025 - an excellent weather configuration to use the 19's).

 

Is there some way to archive weather for a specific time/date, and be able to return to it as required, using the excellent NOAA weather plug-in?

 

Thanks, Bruce.

Share this post


Link to post
Share on other sites
Help AVSIM continue to serve you!
Please donate today!

Using the NOAA plug-in (and the excellent Ventura add-on), every time I load XPX at an airport I get current weather, which is normally good. But on occasion there's something unique about the weather (like today at KSFO: KSFO 152340Z 1600/1706 21025G35KT P6SM VCSH SCT018 BKN025 - an excellent weather configuration to use the 19's).

 

Is there some way to archive weather for a specific time/date, and be able to return to it as required, using the excellent NOAA weather plug-in?

 

Thanks, Bruce.

 

Good question but I'm not sure. If you ask in this thread I'm sure Joan will respond and perhaps implement such a  feature.

 

http://forums.x-plane.org/index.php?/forums/topic/72313-noaa-weather-plugin/&page=82

Share this post


Link to post
Share on other sites

Create an account or sign in to comment

You need to be a member in order to leave a comment

Create an account

Sign up for a new account in our community. It's easy!

Register a new account

Sign in

Already have an account? Sign in here.

Sign In Now
Sign in to follow this